Time;durP1;ratioP1;P1;durP2;ratioP2;P2;SDS_P1;SDS_P2;PMS_P1;PMS_P2;Temp;Humidity;BMP_temperature;BMP_pressure;BME280_temperature;BME280_humidity;BME280_pressure;Samples;Min_cycle;Max_cycle;Signal;HPM_P1;HPM_P2
2022/05/13 03:01:32;;;;;;;28.27;26.23;;;16.30;99.90;;;;;;5472237;23;20278;-80
2022/05/13 03:03:58;;;;;;;26.40;24.37;;;16.30;99.90;;;;;;5013384;28;20184;-82
2022/05/13 03:06:24;;;;;;;19.37;17.53;;;16.30;99.90;;;;;;5013361;28;20786;-82
2022/05/13 03:08:51;;;;;;;19.60;17.83;;;16.30;99.90;;;;;;5013420;28;20179;-82
2022/05/13 03:11:17;;;;;;;21.37;19.23;;;16.20;99.90;;;;;;5005287;28;20200;-81
2022/05/13 03:13:44;;;;;;;25.67;23.77;;;16.20;99.90;;;;;;4994879;28;20184;-82
2022/05/13 03:16:14;;;;;;;14.47;13.17;;;16.20;99.90;;;;;;5004898;23;20233;-78
2022/05/13 03:18:41;;;;;;;21.57;19.57;;;16.20;99.90;;;;;;4970370;29;20189;-79
2022/05/13 03:21:08;;;;;;;29.57;27.57;;;16.10;99.90;;;;;;4971799;28;20169;-78
2022/05/13 03:23:34;;;;;;;36.03;33.77;;;16.20;99.90;;;;;;4972640;28;20216;-78
2022/05/13 03:26:00;;;;;;;83.90;79.17;;;16.10;99.90;;;;;;4973432;28;20210;-78
2022/05/13 03:28:26;;;;;;;66.37;62.63;;;16.20;99.90;;;;;;4953584;28;20269;-78
2022/05/13 03:30:52;;;;;;;68.53;64.27;;;16.20;99.90;;;;;;4942569;29;20265;-78
2022/05/13 03:33:19;;;;;;;74.03;69.90;;;16.10;99.90;;;;;;4947371;29;20179;-78
2022/05/13 03:35:45;;;;;;;60.77;57.20;;;16.10;99.90;;;;;;4946313;29;20245;-78
2022/05/13 03:38:10;;;;;;;59.30;55.83;;;16.10;99.90;;;;;;4962613;29;20189;-78
2022/05/13 03:40:37;;;;;;;25.23;23.33;;;16.10;99.90;;;;;;4965332;28;20285;-75
2022/05/13 03:43:04;;;;;;;14.07;13.07;;;16.10;99.90;;;;;;4940813;29;20559;-74
2022/05/13 03:45:32;;;;;;;18.13;14.97;;;16.00;99.90;;;;;;4926890;28;20186;-74
2022/05/13 03:47:59;;;;;;;17.73;16.17;;;16.00;99.90;;;;;;4933719;28;20246;-76
2022/05/13 03:50:26;;;;;;;20.70;19.03;;;16.00;99.90;;;;;;4932972;29;20524;-75
2022/05/13 03:52:52;;;;;;;16.50;14.87;;;16.00;99.90;;;;;;4937523;29;20280;-74
2022/05/13 03:55:17;;;;;;;19.30;17.80;;;16.00;99.90;;;;;;4938498;28;20202;-75
2022/05/13 03:57:43;;;;;;;16.17;14.97;;;16.00;99.90;;;;;;4952099;28;20197;-75
2022/05/13 04:00:10;;;;;;;18.93;17.40;;;16.00;99.90;;;;;;4953777;28;20193;-74
2022/05/13 04:02:37;;;;;;;30.33;28.40;;;15.90;99.90;;;;;;4952880;28;20181;-74
2022/05/13 04:10:34;;;;;;;17.83;16.23;;;15.90;99.90;;;;;;4933918;29;20674;-74
2022/05/13 04:18:29;;;;;;;46.80;44.03;;;16.00;99.90;;;;;;4931277;29;20609;-76
2022/05/13 04:20:54;;;;;;;41.20;38.30;;;15.90;99.90;;;;;;4934309;28;20190;-76
2022/05/13 04:23:20;;;;;;;27.03;25.03;;;15.90;99.90;;;;;;4931180;29;20257;-75
2022/05/13 04:25:47;;;;;;;16.20;14.70;;;16.00;99.90;;;;;;4940034;29;20206;-77
2022/05/13 04:28:13;;;;;;;30.23;27.93;;;15.90;99.90;;;;;;4932397;29;20257;-73
2022/05/13 04:30:40;;;;;;;37.87;35.27;;;15.90;99.90;;;;;;4932480;29;20218;-77
2022/05/13 04:33:06;;;;;;;38.63;36.20;;;15.90;99.90;;;;;;4933167;29;20536;-76
2022/05/13 04:35:32;;;;;;;35.43;32.80;;;15.90;99.90;;;;;;4932785;29;20210;-76
2022/05/13 04:37:58;;;;;;;32.87;30.50;;;16.00;99.90;;;;;;4934872;29;20194;-75
2022/05/13 04:40:23;;;;;;;23.30;21.43;;;16.10;99.90;;;;;;4951527;29;20194;-75
2022/05/13 04:42:49;;;;;;;21.47;19.93;;;16.20;99.90;;;;;;4951906;29;20197;-75
2022/05/13 04:45:25;;;;;;;22.13;20.63;;;16.20;99.90;;;;;;4950828;29;20193;-75
2022/05/13 04:50:43;;;;;;;28.57;26.50;;;16.40;99.90;;;;;;4932989;29;20194;-75
2022/05/13 04:53:10;;;;;;;37.67;34.90;;;16.40;99.90;;;;;;4931879;29;20184;-76
2022/05/13 04:55:36;;;;;;;27.23;25.27;;;16.30;99.90;;;;;;4932677;28;20221;-75
2022/05/13 04:58:03;;;;;;;25.87;24.03;;;16.20;99.90;;;;;;4920065;28;21038;-75
2022/05/13 05:00:30;;;;;;;26.67;24.57;;;16.20;99.90;;;;;;4932351;29;20194;-75
2022/05/13 05:02:56;;;;;;;32.90;30.50;;;16.20;99.90;;;;;;4933235;29;20179;-75
2022/05/13 05:05:22;;;;;;;47.97;44.50;;;16.20;99.90;;;;;;4937434;28;20197;-76
2022/05/13 05:07:58;;;;;;;27.63;25.67;;;16.20;99.90;;;;;;4952057;28;20181;-75
2022/05/13 05:10:25;;;;;;;28.67;26.33;;;16.20;99.90;;;;;;4940931;29;20182;-76
2022/05/13 05:12:56;;;;;;;31.10;28.33;;;16.20;99.90;;;;;;4917356;29;20183;-76
2022/05/13 05:15:22;;;;;;;35.40;32.97;;;16.20;99.90;;;;;;4917444;29;20214;-77
2022/05/13 05:17:48;;;;;;;29.90;27.27;;;16.20;99.90;;;;;;4935450;29;20202;-78
2022/05/13 05:20:15;;;;;;;23.77;21.67;;;16.20;99.90;;;;;;4936329;29;20189;-76
2022/05/13 05:22:43;;;;;;;18.20;16.70;;;16.20;99.90;;;;;;4938031;29;20241;-76
2022/05/13 05:25:21;;;;;;;20.73;19.03;;;16.20;99.90;;;;;;4935830;29;20628;-76
2022/05/13 05:27:48;;;;;;;45.53;42.00;;;16.20;99.90;;;;;;4936172;29;20190;-76
2022/05/13 05:30:15;;;;;;;32.13;30.00;;;16.20;99.90;;;;;;4936501;28;20245;-76
2022/05/13 05:32:41;;;;;;;65.00;61.00;;;16.20;99.90;;;;;;4935398;28;20301;-76
2022/05/13 05:35:12;;;;;;;27.33;25.40;;;16.20;99.90;;;;;;4936826;29;20214;-76
2022/05/13 05:37:38;;;;;;;24.83;22.97;;;16.30;99.90;;;;;;4938706;28;20228;-81
2022/05/13 05:40:05;;;;;;;33.67;31.07;;;16.30;99.90;;;;;;4954043;29;20599;-76
2022/05/13 05:42:31;;;;;;;48.00;44.97;;;16.30;99.90;;;;;;4954255;29;20189;-79
2022/05/13 05:44:56;;;;;;;39.40;36.80;;;16.30;99.90;;;;;;4955618;28;20186;-76
2022/05/13 05:47:23;;;;;;;36.83;34.23;;;16.30;99.90;;;;;;4953772;28;20210;-76
2022/05/13 05:49:50;;;;;;;48.23;45.40;;;16.40;99.90;;;;;;4938527;29;20662;-76
2022/05/13 05:52:16;;;;;;;45.07;41.73;;;16.40;99.90;;;;;;4936167;29;20238;-76
2022/05/13 05:57:27;;;;;;;33.53;31.30;;;16.50;99.90;;;;;;4935668;29;20206;-76
2022/05/13 05:59:53;;;;;;;15.83;14.33;;;16.50;99.90;;;;;;4951419;28;20189;-75
2022/05/13 06:02:19;;;;;;;15.10;13.90;;;16.50;99.90;;;;;;4954984;28;20797;-76
2022/05/13 06:04:45;;;;;;;16.13;14.80;;;16.40;99.90;;;;;;4955179;29;20185;-75
2022/05/13 06:07:14;;;;;;;18.77;15.03;;;16.50;99.90;;;;;;4954784;28;20272;-75
2022/05/13 06:09:41;;;;;;;16.70;13.30;;;16.60;99.90;;;;;;4953462;28;20281;-75
2022/05/13 06:12:09;;;;;;;16.73;15.37;;;16.50;99.90;;;;;;4943003;28;20838;-75
2022/05/13 06:14:35;;;;;;;55.40;52.03;;;16.50;99.90;;;;;;4918793;29;20213;-75
2022/05/13 06:17:01;;;;;;;58.53;55.20;;;16.50;99.90;;;;;;4916156;29;20277;-75
2022/05/13 06:19:27;;;;;;;55.10;51.90;;;16.50;99.90;;;;;;4943885;29;20277;-75
2022/05/13 06:21:53;;;;;;;43.03;40.23;;;16.50;99.90;;;;;;4952398;28;20617;-75
2022/05/13 06:24:19;;;;;;;40.33;37.53;;;16.50;99.90;;;;;;4954647;28;20206;-76
2022/05/13 06:26:48;;;;;;;25.43;23.47;;;16.50;99.90;;;;;;4953925;28;20236;-76
2022/05/13 06:29:15;;;;;;;21.67;20.07;;;16.40;99.90;;;;;;4943055;29;20191;-75
2022/05/13 06:31:41;;;;;;;27.93;25.50;;;16.50;99.90;;;;;;4934007;29;20185;-76
2022/05/13 06:34:07;;;;;;;33.43;31.07;;;16.50;99.90;;;;;;4934964;29;20178;-76
2022/05/13 06:36:34;;;;;;;35.03;32.50;;;16.50;99.90;;;;;;4931207;29;20234;-77
2022/05/13 06:39:00;;;;;;;40.07;37.53;;;16.50;99.90;;;;;;4921448;29;20186;-77
2022/05/13 06:41:26;;;;;;;38.70;36.40;;;16.60;99.90;;;;;;4934356;29;20189;-78
2022/05/13 06:43:52;;;;;;;48.57;45.57;;;16.70;99.90;;;;;;4939204;29;20174;-76
2022/05/13 06:46:18;;;;;;;68.50;64.67;;;16.80;99.90;;;;;;4948323;28;20206;-76
2022/05/13 06:48:44;;;;;;;65.83;62.23;;;16.90;99.90;;;;;;4950772;29;20212;-76
2022/05/13 06:51:10;;;;;;;65.00;61.07;;;17.00;99.90;;;;;;4937151;29;20190;-76
2022/05/13 06:53:36;;;;;;;64.17;60.17;;;17.20;99.90;;;;;;4936328;29;20190;-76
2022/05/13 06:56:01;;;;;;;31.23;29.10;;;17.40;99.90;;;;;;4935990;29;20282;-76
2022/05/13 06:58:27;;;;;;;13.37;11.03;;;17.60;99.90;;;;;;4937032;29;20253;-75
2022/05/13 07:00:53;;;;;;;11.80;10.80;;;17.80;99.90;;;;;;4942849;29;20178;-76
2022/05/13 07:03:20;;;;;;;16.17;14.70;;;18.00;99.90;;;;;;4953241;29;20729;-76
2022/05/13 07:05:46;;;;;;;25.50;23.80;;;18.00;99.90;;;;;;4954438;28;20206;-77
2022/05/13 07:08:13;;;;;;;101.37;95.00;;;18.00;99.90;;;;;;4953082;28;20282;-77
2022/05/13 07:10:40;;;;;;;89.77;84.50;;;18.00;99.90;;;;;;4935071;29;20647;-77
2022/05/13 07:13:08;;;;;;;85.77;80.50;;;18.00;99.90;;;;;;4934005;29;20193;-76
2022/05/13 07:15:33;;;;;;;84.87;79.73;;;18.00;99.90;;;;;;4933422;29;20257;-76
2022/05/13 07:17:59;;;;;;;41.20;38.50;;;18.00;99.90;;;;;;4934509;29;20233;-77
2022/05/13 07:20:27;;;;;;;77.50;72.37;;;18.10;99.90;;;;;;4953448;29;20238;-77
2022/05/13 07:22:55;;;;;;;130.03;123.07;;;18.10;99.90;;;;;;4954006;28;20669;-77
2022/05/13 07:25:21;;;;;;;124.63;117.93;;;18.20;99.90;;;;;;4953619;28;20205;-77
2022/05/13 07:27:48;;;;;;;129.90;122.47;;;18.20;99.90;;;;;;4952302;28;20615;-77
2022/05/13 07:30:15;;;;;;;121.33;113.67;;;18.20;99.90;;;;;;4936922;28;20686;-77
2022/05/13 07:32:41;;;;;;;84.23;79.23;;;18.30;99.90;;;;;;4934473;29;20230;-76
2022/05/13 07:35:08;;;;;;;62.00;58.57;;;18.40;99.90;;;;;;4933652;29;20651;-77
2022/05/13 07:37:35;;;;;;;39.17;36.73;;;18.50;99.90;;;;;;4935414;29;20195;-77
2022/05/13 07:42:45;;;;;;;24.93;23.40;;;18.60;99.90;;;;;;4953773;29;20673;-77
2022/05/13 07:45:11;;;;;;;33.37;30.93;;;18.60;99.90;;;;;;4952538;29;20185;-77
2022/05/13 07:47:39;;;;;;;34.80;32.40;;;18.50;99.90;;;;;;4953198;28;20210;-77
2022/05/13 07:50:14;;;;;;;34.73;32.23;;;18.50;99.90;;;;;;4948484;29;20189;-77
2022/05/13 07:52:40;;;;;;;28.40;26.60;;;18.30;99.90;;;;;;4953261;29;20196;-77
2022/05/13 07:55:11;;;;;;;35.40;33.20;;;18.30;99.90;;;;;;4953625;28;20697;-77
2022/05/13 07:57:40;;;;;;;25.03;23.00;;;18.30;99.90;;;;;;4953167;28;20312;-77
2022/05/13 08:00:26;;;;;;;36.80;34.63;;;18.20;99.90;;;;;;4937338;28;20182;-77
2022/05/13 08:02:53;;;;;;;116.17;109.87;;;18.20;99.90;;;;;;4934405;28;20560;-77
2022/05/13 08:05:19;;;;;;;90.07;85.07;;;18.30;99.90;;;;;;4934150;28;20182;-77
2022/05/13 08:07:45;;;;;;;37.33;34.43;;;18.30;99.90;;;;;;4932982;29;20333;-78
2022/05/13 08:10:11;;;;;;;33.40;31.23;;;18.50;99.90;;;;;;4939460;28;20277;-76
2022/05/13 08:12:37;;;;;;;23.23;21.50;;;18.70;99.90;;;;;;4939998;29;20249;-76
2022/05/13 08:15:03;;;;;;;16.80;15.40;;;18.90;99.90;;;;;;4941978;28;20241;-76
2022/05/13 08:17:33;;;;;;;17.63;13.80;;;18.90;99.90;;;;;;4932246;29;20269;-76
2022/05/13 08:20:02;;;;;;;15.93;14.20;;;18.90;99.90;;;;;;4936718;29;20577;-76
2022/05/13 08:22:27;;;;;;;15.80;14.60;;;18.90;99.90;;;;;;4955229;28;20154;-76
2022/05/13 08:24:53;;;;;;;26.07;24.10;;;19.00;99.90;;;;;;4946309;29;20205;-77
2022/05/13 08:27:19;;;;;;;59.70;56.30;;;19.30;99.90;;;;;;4933703;29;20218;-77
2022/05/13 08:29:45;;;;;;;140.57;133.40;;;19.70;99.90;;;;;;4933743;29;20193;-76
2022/05/13 08:32:11;;;;;;;59.40;55.70;;;20.10;99.90;;;;;;4934781;28;20186;-76
2022/05/13 08:34:36;;;;;;;76.93;72.83;;;20.60;99.90;;;;;;4951691;29;20307;-75
2022/05/13 08:37:02;;;;;;;32.20;30.00;;;21.10;99.90;;;;;;4952452;28;20232;-76
2022/05/13 08:39:28;;;;;;;42.20;39.67;;;21.90;99.90;;;;;;4952699;29;20597;-76
2022/05/13 08:42:18;;;;;;;16.92;15.63;;;22.10;99.90;;;;;;4951508;29;20184;-77
2022/05/13 08:44:44;;;;;;;17.40;15.90;;;21.80;99.90;;;;;;4915441;29;20282;-77
2022/05/13 08:47:36;;;;;;;13.15;11.93;;;21.40;99.90;;;;;;4917949;29;20211;-77
2022/05/13 08:50:09;;;;;;;16.17;14.87;;;21.10;99.90;;;;;;4918519;29;20190;-77
2022/05/13 08:53:09;;;;;;;11.88;10.88;;;20.90;99.90;;;;;;4927974;29;20182;-77
2022/05/13 08:55:37;;;;;;;11.77;10.67;;;20.70;99.90;;;;;;4955470;28;20221;-76
2022/05/13 08:58:08;;;;;;;9.57;8.67;;;20.30;99.90;;;;;;4958037;28;20612;-77
2022/05/13 09:00:50;;;;;;;12.77;11.50;;;20.20;99.90;;;;;;4957867;28;20639;-79
2022/05/13 09:03:40;;;;;;;10.60;8.73;;;20.10;99.90;;;;;;4950603;28;20549;-77
2022/05/13 09:06:30;;;;;;;10.87;9.80;;;20.00;99.90;;;;;;4956132;28;20244;-77
2022/05/13 09:09:00;;;;;;;13.53;8.93;;;20.30;99.90;;;;;;4956074;28;20197;-77
2022/05/13 09:11:30;;;;;;;10.70;9.60;;;20.60;99.90;;;;;;4954786;28;20192;-77
2022/05/13 09:14:13;;;;;;;15.17;14.00;;;20.70;99.90;;;;;;4941032;28;20191;-77
2022/05/13 09:16:50;;;;;;;14.75;13.32;;;21.00;99.90;;;;;;4964981;23;20285;-76
2022/05/13 09:19:36;;;;;;;9.97;8.97;;;21.40;99.90;;;;;;4954443;28;20600;-76
2022/05/13 09:22:04;;;;;;;28.90;27.13;;;21.60;99.90;;;;;;4954925;29;20717;-76
2022/05/13 09:24:30;;;;;;;34.30;32.25;;;21.60;99.90;;;;;;4973212;28;20189;-76
2022/05/13 09:26:56;;;;;;;33.75;31.27;;;21.50;99.90;;;;;;4963264;28;20618;-76
2022/05/13 09:29:21;;;;;;;24.85;22.85;;;21.20;99.90;;;;;;4953977;29;20209;-76
2022/05/13 09:32:02;;;;;;;20.47;18.53;;;21.10;99.90;;;;;;4955240;29;20209;-76
2022/05/13 09:34:36;;;;;;;19.80;18.17;;;20.90;99.90;;;;;;4950605;28;20689;-76
2022/05/13 09:37:26;;;;;;;17.65;15.98;;;20.90;99.90;;;;;;4955155;28;20297;-76
2022/05/13 09:40:19;;;;;;;28.20;26.48;;;21.30;99.90;;;;;;4955604;28;20615;-76
2022/05/13 09:42:48;;;;;;;32.72;30.77;;;21.40;99.90;;;;;;4949310;29;20198;-77
2022/05/13 09:45:19;;;;;;;27.63;25.75;;;21.30;99.90;;;;;;4936394;29;20190;-75
2022/05/13 09:48:03;;;;;;;30.52;28.52;;;21.20;99.90;;;;;;4936236;29;20207;-75
2022/05/13 09:50:33;;;;;;;24.98;23.15;;;21.10;99.90;;;;;;4935125;29;20190;-76
2022/05/13 09:53:05;;;;;;;19.20;17.37;;;20.80;99.90;;;;;;4941340;29;20190;-75
2022/05/13 09:55:39;;;;;;;18.73;15.80;;;20.40;99.90;;;;;;4955305;28;20716;-74
2022/05/13 09:58:20;;;;;;;16.53;15.20;;;20.10;99.90;;;;;;4953592;28;20185;-74
2022/05/13 10:00:50;;;;;;;14.90;13.77;;;19.80;99.90;;;;;;4953828;28;20186;-74
2022/05/13 10:03:21;;;;;;;13.53;12.33;;;19.60;99.90;;;;;;4946797;28;20201;-74
2022/05/13 10:06:05;;;;;;;10.07;8.93;;;19.50;99.90;;;;;;4936080;28;20665;-74
2022/05/13 10:08:31;;;;;;;11.80;8.90;;;19.40;99.90;;;;;;4935335;29;20186;-74
2022/05/13 10:13:59;;;;;;;14.73;12.10;;;19.30;99.90;;;;;;4936510;29;20277;-78
2022/05/13 10:16:37;;;;;;;10.17;9.07;;;19.30;99.90;;;;;;4938135;29;20218;-78
2022/05/13 10:19:09;;;;;;;14.07;11.93;;;19.60;99.90;;;;;;4936084;29;20193;-76
2022/05/13 10:22:02;;;;;;;18.27;16.80;;;20.00;99.90;;;;;;4936992;28;20186;-76
2022/05/13 10:24:44;;;;;;;11.33;10.53;;;20.40;99.90;;;;;;4953638;28;20213;-77
2022/05/13 10:27:28;;;;;;;9.90;8.65;;;21.00;99.90;;;;;;4954684;28;20276;-76
2022/05/13 10:30:02;;;;;;;5.50;5.00;;;21.80;99.90;;;;;;4954947;29;20181;-77
2022/05/13 10:32:47;;;;;;;14.48;9.73;;;22.50;99.90;;;;;;4953678;29;20177;-74
2022/05/13 10:35:18;;;;;;;29.15;26.92;;;23.00;99.90;;;;;;4913494;29;20211;-75
2022/05/13 10:37:59;;;;;;;22.08;20.48;;;23.20;99.90;;;;;;4931968;29;20218;-75
2022/05/13 10:40:29;;;;;;;8.90;7.25;;;23.20;99.90;;;;;;4933884;29;20189;-75
2022/05/13 10:43:03;;;;;;;10.48;9.57;;;23.50;99.90;;;;;;4937944;29;20657;-75
2022/05/13 10:45:33;;;;;;;13.38;12.27;;;23.20;99.90;;;;;;4952947;28;20193;-76
2022/05/13 10:48:17;;;;;;;11.98;11.13;;;23.00;99.90;;;;;;4914382;29;20214;-76
2022/05/13 10:51:01;;;;;;;13.70;12.80;;;23.20;99.90;;;;;;4914311;29;20197;-76
2022/05/13 10:53:38;;;;;;;11.75;10.70;;;22.90;99.90;;;;;;4929281;29;20181;-76
2022/05/13 10:56:12;;;;;;;10.25;9.18;;;22.30;99.90;;;;;;4954453;28;20243;-76
2022/05/13 10:58:49;;;;;;;11.38;10.32;;;22.00;99.90;;;;;;4954035;29;20653;-75
2022/05/13 11:01:32;;;;;;;21.05;19.55;;;21.70;99.90;;;;;;4954332;28;20571;-75
2022/05/13 11:04:01;;;;;;;30.08;27.73;;;21.40;99.90;;;;;;4939864;28;20187;-75
2022/05/13 11:06:49;;;;;;;20.80;19.08;;;21.10;99.90;;;;;;4937207;28;20202;-75
2022/05/13 11:09:42;;;;;;;20.42;19.05;;;21.30;99.90;;;;;;4914476;29;20187;-75
2022/05/13 11:12:19;;;;;;;13.97;12.73;;;21.30;99.90;;;;;;4932232;29;20178;-75
2022/05/13 11:15:01;;;;;;;11.13;9.50;;;21.30;99.90;;;;;;4951329;29;20205;-75
2022/05/13 11:17:52;;;;;;;14.15;9.43;;;21.20;99.90;;;;;;4953243;28;20659;-76
2022/05/13 11:20:38;;;;;;;14.77;13.32;;;21.40;99.90;;;;;;4953292;29;20272;-77
2022/05/13 11:23:22;;;;;;;13.50;12.43;;;21.30;99.90;;;;;;4949282;28;20260;-76
2022/05/13 11:26:13;;;;;;;25.20;23.48;;;21.50;99.90;;;;;;4952144;28;20239;-75
2022/05/13 11:28:54;;;;;;;24.88;23.25;;;21.80;99.90;;;;;;4953805;29;20181;-75
2022/05/13 11:31:33;;;;;;;34.17;31.92;;;22.00;99.90;;;;;;4954110;29;20189;-75
2022/05/13 11:34:20;;;;;;;14.73;13.43;;;22.30;99.90;;;;;;4942936;28;20190;-76
2022/05/13 11:37:03;;;;;;;12.30;10.38;;;22.70;99.90;;;;;;4934289;29;20651;-75
2022/05/13 11:39:57;;;;;;;13.45;12.18;;;22.80;99.90;;;;;;4932775;29;20182;-76
2022/05/13 11:43:18;;;;;;;12.10;10.27;;;22.90;99.90;;;;;;4933002;29;20186;-76
2022/05/13 11:45:35;;;;;;;12.45;11.25;;;22.70;99.90;;;;;;4915382;29;20193;-76
2022/05/13 11:48:26;;;;;;;13.75;12.65;;;22.80;99.90;;;;;;4915123;29;20214;-76
2022/05/13 11:51:03;;;;;;;13.20;12.00;;;23.00;99.90;;;;;;4915384;29;20187;-75
2022/05/13 11:53:52;;;;;;;12.68;10.50;;;22.60;99.90;;;;;;4927164;29;20177;-82
2022/05/13 11:56:32;;;;;;;10.85;10.00;;;22.30;99.90;;;;;;4953372;28;20228;-76
2022/05/13 11:59:19;;;;;;;11.63;10.60;;;22.30;99.90;;;;;;4951460;28;20654;-76
2022/05/13 12:01:44;;;;;;;10.55;9.27;;;22.40;99.90;;;;;;4953525;28;20189;-77
2022/05/13 12:04:17;;;;;;;10.68;9.88;;;22.90;99.90;;;;;;4941936;29;20178;-76
2022/05/13 12:06:51;;;;;;;7.75;7.13;;;23.10;99.90;;;;;;4933814;29;20234;-77
2022/05/13 12:09:21;;;;;;;8.57;6.18;;;23.20;99.90;;;;;;4933869;29;20552;-76
2022/05/13 12:12:05;;;;;;;6.78;5.50;;;23.70;99.90;;;;;;4934040;29;20178;-77
2022/05/13 12:15:03;;;;;;;12.38;6.30;;;23.90;99.90;;;;;;4947681;29;20182;-76
2022/05/13 12:17:36;;;;;;;8.60;7.63;;;24.70;99.90;;;;;;4952583;28;20271;-76
2022/05/13 12:20:18;;;;;;;8.38;7.05;;;25.90;99.90;;;;;;4940248;29;20237;-77
2022/05/13 12:23:02;;;;;;;8.57;5.43;;;27.50;99.60;;;;;;4937812;28;20186;-76
2022/05/13 12:25:31;;;;;;;5.53;4.97;;;27.50;97.00;;;;;;4956033;29;20196;-77
2022/05/13 12:28:21;;;;;;;9.15;5.13;;;27.80;95.60;;;;;;4956622;28;20625;-77
2022/05/13 12:30:51;;;;;;;7.40;6.05;;;28.00;92.90;;;;;;4961476;29;20321;-77
2022/05/13 12:33:20;;;;;;;6.78;6.15;;;27.60;92.00;;;;;;4959259;29;20182;-77
2022/05/13 12:39:17;;;;;;;7.22;5.13;;;29.80;88.10;;;;;;4944241;29;20209;-77
2022/05/13 12:41:43;;;;;;;6.20;5.55;;;29.70;79.70;;;;;;4937807;29;20233;-75
2022/05/13 12:44:24;;;;;;;7.15;6.38;;;29.30;80.90;;;;;;4948712;28;20197;-75
2022/05/13 12:46:52;;;;;;;4.97;4.10;;;29.30;77.30;;;;;;4955078;28;20233;-75
2022/05/13 12:49:18;;;;;;;8.15;7.45;;;29.90;78.00;;;;;;4959013;29;20661;-78
2022/05/13 12:52:15;;;;;;;9.38;7.13;;;28.00;77.90;;;;;;4958536;29;20190;-76
2022/05/13 12:55:24;;;;;;;8.63;6.25;;;26.70;85.00;;;;;;4940691;29;20334;-75
2022/05/13 12:58:00;;;;;;;6.85;6.13;;;27.90;84.40;;;;;;4937052;29;20206;-75
2022/05/13 13:00:42;;;;;;;6.50;5.32;;;28.00;83.40;;;;;;4936682;29;20218;-75
2022/05/13 13:03:12;;;;;;;6.90;5.45;;;28.30;77.90;;;;;;4938025;29;20651;-75
2022/05/13 13:05:41;;;;;;;6.22;5.20;;;28.20;77.90;;;;;;4954896;29;20190;-76
2022/05/13 13:08:22;;;;;;;7.00;6.40;;;28.40;76.20;;;;;;4954424;29;20186;-76
2022/05/13 13:11:06;;;;;;;9.02;5.97;;;27.60;79.50;;;;;;4946218;29;20182;-76
2022/05/13 13:14:09;;;;;;;8.95;6.00;;;28.20;77.90;;;;;;4936599;29;20187;-75
2022/05/13 13:16:50;;;;;;;8.70;7.93;;;28.80;79.00;;;;;;4935221;29;20283;-76
2022/05/13 13:19:23;;;;;;;6.00;5.50;;;28.80;78.70;;;;;;4935293;29;20678;-75
2022/05/13 13:21:55;;;;;;;7.65;5.88;;;28.10;75.00;;;;;;4937771;29;20178;-75
2022/05/13 13:24:27;;;;;;;8.00;6.43;;;27.40;75.20;;;;;;4937575;29;20275;-76
2022/05/13 13:26:56;;;;;;;11.57;5.18;;;27.00;78.80;;;;;;4936428;29;20214;-75
2022/05/13 13:29:40;;;;;;;7.22;6.07;;;27.10;79.70;;;;;;4936007;29;20558;-77
2022/05/13 13:32:12;;;;;;;8.60;7.88;;;26.10;79.00;;;;;;4954573;29;20676;-75
2022/05/13 13:34:48;;;;;;;5.65;4.97;;;25.90;81.90;;;;;;4955529;29;20206;-75
2022/05/13 13:37:16;;;;;;;10.32;5.65;;;27.70;79.40;;;;;;4953953;28;20209;-75
2022/05/13 13:39:42;;;;;;;9.45;5.25;;;27.40;78.10;;;;;;4955346;29;20181;-74
2022/05/13 13:42:11;;;;;;;6.65;5.63;;;26.90;81.50;;;;;;4936043;29;20692;-75
2022/05/13 13:44:39;;;;;;;4.80;4.30;;;26.00;79.30;;;;;;4936206;28;20174;-75
2022/05/13 13:47:10;;;;;;;6.60;4.82;;;25.40;81.80;;;;;;4934346;29;20643;-74
2022/05/13 13:49:38;;;;;;;7.30;6.57;;;25.40;81.40;;;;;;4935775;29;20283;-75
2022/05/13 13:52:21;;;;;;;5.15;4.68;;;26.10;82.00;;;;;;4952226;29;20178;-77
2022/05/13 13:54:51;;;;;;;6.35;5.85;;;27.10;78.50;;;;;;4955535;29;20220;-78
2022/05/13 13:57:56;;;;;;;4.78;4.32;;;26.20;77.90;;;;;;4925802;29;20367;-78
2022/05/13 14:00:28;;;;;;;6.57;6.13;;;25.10;80.20;;;;;;4921888;29;20194;-77
2022/05/13 14:03:06;;;;;;;4.88;4.50;;;25.80;80.70;;;;;;4936827;29;20178;-78
2022/05/13 14:05:48;;;;;;;5.63;5.00;;;26.90;75.50;;;;;;4936742;29;20651;-77
2022/05/13 14:08:15;;;;;;;7.00;4.40;;;26.00;76.60;;;;;;4935620;29;20251;-77
2022/05/13 14:10:59;;;;;;;5.75;5.10;;;25.30;79.80;;;;;;4933545;29;20183;-76
2022/05/13 14:13:39;;;;;;;8.15;7.28;;;24.60;80.50;;;;;;4932574;29;20196;-76
2022/05/13 14:16:22;;;;;;;9.05;6.25;;;25.40;81.10;;;;;;4934753;29;20222;-76
2022/05/13 14:18:52;;;;;;;4.93;4.55;;;26.70;77.70;;;;;;4933508;29;20233;-76
2022/05/13 14:21:17;;;;;;;6.72;4.68;;;27.60;74.40;;;;;;4945722;29;20229;-76
2022/05/13 14:23:54;;;;;;;4.70;4.32;;;28.00;73.50;;;;;;4948088;29;20218;-74
2022/05/13 14:26:20;;;;;;;5.50;4.35;;;28.20;71.10;;;;;;4934926;29;20247;-77
2022/05/13 14:28:49;;;;;;;8.18;3.85;;;28.30;71.60;;;;;;4934021;29;20759;-75
2022/05/13 14:31:38;;;;;;;5.80;3.55;;;28.40;68.80;;;;;;4945001;29;20572;-75
2022/05/13 14:34:20;;;;;;;7.13;4.13;;;28.60;68.40;;;;;;4954152;29;20189;-75
2022/05/13 14:36:56;;;;;;;8.25;7.70;;;29.00;68.30;;;;;;4952549;28;20696;-75
2022/05/13 14:42:17;;;;;;;6.15;5.78;;;28.00;64.90;;;;;;4935981;29;20183;-75
2022/05/13 14:44:48;;;;;;;5.65;5.22;;;27.50;67.50;;;;;;4933688;29;20198;-75
2022/05/13 14:47:29;;;;;;;5.60;5.03;;;27.00;68.70;;;;;;4933746;29;20213;-75
2022/05/13 14:49:57;;;;;;;5.38;4.07;;;27.20;68.80;;;;;;4934776;29;20276;-75
2022/05/13 14:52:33;;;;;;;4.95;4.50;;;28.50;67.20;;;;;;4953010;29;20604;-75
2022/05/13 14:55:04;;;;;;;7.55;4.35;;;28.40;67.50;;;;;;4953779;29;20697;-75
2022/05/13 14:57:34;;;;;;;10.85;7.93;;;28.50;67.30;;;;;;4953407;28;20280;-75
2022/05/13 15:00:05;;;;;;;14.63;13.63;;;29.40;62.60;;;;;;4954005;29;20181;-75
2022/05/13 15:02:37;;;;;;;12.25;11.40;;;30.10;59.70;;;;;;4934717;28;20190;-74
2022/05/13 15:05:28;;;;;;;9.25;8.70;;;29.90;60.50;;;;;;4934654;28;20594;-75
2022/05/13 15:07:56;;;;;;;11.18;10.48;;;29.40;59.80;;;;;;4933025;29;20215;-76
2022/05/13 15:10:24;;;;;;;10.15;9.40;;;29.60;58.50;;;;;;4949345;28;20185;-76
2022/05/13 15:12:53;;;;;;;9.77;8.82;;;30.20;57.70;;;;;;4952002;29;20266;-76
2022/05/13 15:15:20;;;;;;;10.10;9.52;;;30.00;58.20;;;;;;4954788;29;20212;-75
2022/05/13 15:18:01;;;;;;;6.70;6.07;;;29.60;58.00;;;;;;4988487;23;20263;-77
2022/05/13 15:20:27;;;;;;;10.85;8.85;;;28.60;57.20;;;;;;5002608;28;20253;-78
2022/05/13 15:22:54;;;;;;;6.38;5.63;;;28.90;58.60;;;;;;5004096;28;20180;-78
2022/05/13 15:25:23;;;;;;;8.43;7.70;;;29.60;57.80;;;;;;5005983;28;20185;-78
2022/05/13 15:27:49;;;;;;;7.85;5.30;;;29.20;56.60;;;;;;4991784;28;20193;-77
2022/05/13 15:30:16;;;;;;;13.90;12.93;;;28.10;57.00;;;;;;4983711;28;20185;-78
2022/05/13 15:32:43;;;;;;;18.75;17.48;;;28.10;57.70;;;;;;4981353;28;20181;-78
2022/05/13 15:35:09;;;;;;;15.55;14.68;;;28.40;58.20;;;;;;4982281;28;20565;-76
2022/05/13 15:37:37;;;;;;;7.15;6.53;;;28.90;56.40;;;;;;4972321;28;20203;-77
2022/05/13 15:40:06;;;;;;;8.93;6.68;;;29.50;55.90;;;;;;4974127;28;20188;-76
2022/05/13 15:42:34;;;;;;;7.00;6.53;;;30.10;55.00;;;;;;4971348;28;20669;-75
2022/05/13 15:45:02;;;;;;;3.30;3.05;;;29.70;55.60;;;;;;4972450;28;20228;-76
2022/05/13 15:47:30;;;;;;;4.63;3.95;;;29.90;53.90;;;;;;4972945;28;20216;-76
2022/05/13 15:52:42;;;;;;;4.28;3.95;;;29.00;56.40;;;;;;4971738;28;20181;-76
2022/05/13 15:55:22;;;;;;;8.00;4.57;;;29.40;54.50;;;;;;4970956;28;20231;-75
2022/05/13 15:58:03;;;;;;;6.20;4.80;;;29.10;54.80;;;;;;4983696;28;20292;-81
2022/05/13 16:00:32;;;;;;;8.25;6.32;;;28.80;55.10;;;;;;4979068;28;20182;-79
2022/05/13 16:02:59;;;;;;;8.52;7.68;;;28.60;54.50;;;;;;4979340;28;20231;-79
2022/05/13 16:05:29;;;;;;;8.52;7.93;;;28.50;55.10;;;;;;4986311;28;20209;-79
2022/05/13 16:07:55;;;;;;;6.85;6.22;;;28.90;55.70;;;;;;4984035;28;20204;-79
2022/05/13 16:10:21;;;;;;;5.03;3.92;;;29.20;54.50;;;;;;4983903;28;20235;-79
2022/05/13 16:13:03;;;;;;;9.10;8.25;;;29.20;53.30;;;;;;4984933;28;20197;-79
2022/05/13 16:15:35;;;;;;;6.68;6.15;;;28.80;54.40;;;;;;4972403;28;20211;-79
2022/05/13 16:18:02;;;;;;;8.73;8.13;;;28.40;53.70;;;;;;4986307;28;20212;-79
2022/05/13 16:20:29;;;;;;;6.38;5.82;;;27.90;55.20;;;;;;4985300;28;20196;-79
2022/05/13 16:22:59;;;;;;;7.18;6.60;;;28.10;54.00;;;;;;4987079;28;20185;-79
2022/05/13 16:25:25;;;;;;;6.20;5.57;;;28.10;54.00;;;;;;4981808;28;20271;-76
2022/05/13 16:27:56;;;;;;;6.78;6.13;;;28.20;53.70;;;;;;4971237;28;20702;-76
2022/05/13 16:30:22;;;;;;;5.55;5.10;;;27.80;53.50;;;;;;4970787;28;20189;-77